Terminal Aerodrome Forecast
Issued by NWS Cleveland, OH

Home | Current Version | Previous Version | Graphics & Text | Print | Product List | Glossary On
Versions: 1 2 3 4 5 6 7 8 9 10 11 12 13 14 15 16 17 18 19 20 21 22 23 24 25 26
000
FTUS41 KCLE 241735
TAFERI
TAF
KERI 241735Z 2418/2518 21020G30KT P6SM SCT070 BKN100
     FM250000 23010KT P6SM OVC035
     FM250300 VRB04KT P6SM OVC025
     FM250700 05005KT P6SM OVC015
     FM251200 07010KT P6SM VCSH OVC005=

USA.gov is the U.S. government's official web portal to all federal, state and local government web resources and services.